sensor_id;sensor_type;location;lat;lon;timestamp;temperature;humidity
27647;DHT22;42229;51.230;6.240;2023-04-16T00:00:52;10.60;99.90
27647;DHT22;42229;51.230;6.240;2023-04-16T00:03:19;10.60;99.90
27647;DHT22;42229;51.230;6.240;2023-04-16T00:05:45;10.60;99.90
27647;DHT22;42229;51.230;6.240;2023-04-16T00:08:11;10.60;99.90
27647;DHT22;42229;51.230;6.240;2023-04-16T00:10:38;10.60;99.90
27647;DHT22;42229;51.230;6.240;2023-04-16T00:13:04;10.60;99.90
27647;DHT22;42229;51.230;6.240;2023-04-16T00:15:30;10.60;99.90
27647;DHT22;42229;51.230;6.240;2023-04-16T00:17:56;10.60;99.90
27647;DHT22;42229;51.230;6.240;2023-04-16T00:20:23;10.60;99.90
27647;DHT22;42229;51.230;6.240;2023-04-16T00:22:50;10.60;99.90
27647;DHT22;42229;51.230;6.240;2023-04-16T00:25:16;10.60;99.90
27647;DHT22;42229;51.230;6.240;2023-04-16T00:27:42;10.60;99.90
27647;DHT22;42229;51.230;6.240;2023-04-16T00:30:08;10.60;99.90
27647;DHT22;42229;51.230;6.240;2023-04-16T00:32:35;10.60;99.90
27647;DHT22;42229;51.230;6.240;2023-04-16T00:35:01;10.60;99.90
27647;DHT22;42229;51.230;6.240;2023-04-16T00:37:27;10.60;99.90
27647;DHT22;42229;51.230;6.240;2023-04-16T00:39:53;10.60;99.90
27647;DHT22;42229;51.230;6.240;2023-04-16T00:42:20;10.60;99.90
27647;DHT22;42229;51.230;6.240;2023-04-16T00:44:46;10.60;99.90
27647;DHT22;42229;51.230;6.240;2023-04-16T00:47:12;10.60;99.90
27647;DHT22;42229;51.230;6.240;2023-04-16T00:49:39;10.60;99.90
27647;DHT22;42229;51.230;6.240;2023-04-16T00:52:06;10.60;99.90
27647;DHT22;42229;51.230;6.240;2023-04-16T00:54:32;10.60;99.90
27647;DHT22;42229;51.230;6.240;2023-04-16T00:56:58;10.60;99.90
27647;DHT22;42229;51.230;6.240;2023-04-16T00:59:25;10.60;99.90
27647;DHT22;42229;51.230;6.240;2023-04-16T01:01:51;10.60;99.90
27647;DHT22;42229;51.230;6.240;2023-04-16T01:04:18;10.60;99.90
27647;DHT22;42229;51.230;6.240;2023-04-16T01:06:44;10.60;99.90
27647;DHT22;42229;51.230;6.240;2023-04-16T01:09:10;10.60;99.90
27647;DHT22;42229;51.230;6.240;2023-04-16T01:11:37;10.60;99.90
27647;DHT22;42229;51.230;6.240;2023-04-16T01:14:03;10.60;99.90
27647;DHT22;42229;51.230;6.240;2023-04-16T01:16:29;10.60;99.90
27647;DHT22;42229;51.230;6.240;2023-04-16T01:18:56;10.60;99.90
27647;DHT22;42229;51.230;6.240;2023-04-16T01:21:23;10.60;99.90
27647;DHT22;42229;51.230;6.240;2023-04-16T01:23:49;10.60;99.90
27647;DHT22;42229;51.230;6.240;2023-04-16T01:26:15;10.60;99.90
27647;DHT22;42229;51.230;6.240;2023-04-16T01:28:42;10.50;99.90
27647;DHT22;42229;51.230;6.240;2023-04-16T01:31:08;10.50;99.90
27647;DHT22;42229;51.230;6.240;2023-04-16T01:33:49;10.50;99.90
27647;DHT22;42229;51.230;6.240;2023-04-16T01:36:16;10.50;99.90
27647;DHT22;42229;51.230;6.240;2023-04-16T01:38:42;10.50;99.90
27647;DHT22;42229;51.230;6.240;2023-04-16T01:41:08;10.50;99.90
27647;DHT22;42229;51.230;6.240;2023-04-16T01:43:34;10.50;99.90
27647;DHT22;42229;51.230;6.240;2023-04-16T01:46:10;10.60;99.90
27647;DHT22;42229;51.230;6.240;2023-04-16T01:48:38;10.50;99.90
27647;DHT22;42229;51.230;6.240;2023-04-16T01:51:04;10.50;99.90
27647;DHT22;42229;51.230;6.240;2023-04-16T01:53:31;10.50;99.90
27647;DHT22;42229;51.230;6.240;2023-04-16T01:55:57;10.50;99.90
27647;DHT22;42229;51.230;6.240;2023-04-16T01:58:23;10.50;99.90
27647;DHT22;42229;51.230;6.240;2023-04-16T02:00:49;10.50;99.90
27647;DHT22;42229;51.230;6.240;2023-04-16T02:03:16;10.60;99.90
27647;DHT22;42229;51.230;6.240;2023-04-16T02:05:43;10.50;99.90
27647;DHT22;42229;51.230;6.240;2023-04-16T02:08:09;10.50;99.90
27647;DHT22;42229;51.230;6.240;2023-04-16T02:10:35;10.50;99.90
27647;DHT22;42229;51.230;6.240;2023-04-16T02:13:02;10.50;99.90
27647;DHT22;42229;51.230;6.240;2023-04-16T02:15:28;10.50;99.90
27647;DHT22;42229;51.230;6.240;2023-04-16T02:17:54;10.50;99.90
27647;DHT22;42229;51.230;6.240;2023-04-16T02:20:23;10.50;99.90
27647;DHT22;42229;51.230;6.240;2023-04-16T02:22:53;10.50;99.90
27647;DHT22;42229;51.230;6.240;2023-04-16T02:25:22;10.50;99.90
27647;DHT22;42229;51.230;6.240;2023-04-16T02:27:50;10.50;99.90
27647;DHT22;42229;51.230;6.240;2023-04-16T02:30:25;10.50;99.90
27647;DHT22;42229;51.230;6.240;2023-04-16T02:32:52;10.50;99.90
27647;DHT22;42229;51.230;6.240;2023-04-16T02:35:19;10.50;99.90
27647;DHT22;42229;51.230;6.240;2023-04-16T02:37:45;10.50;99.90
27647;DHT22;42229;51.230;6.240;2023-04-16T02:40:11;10.50;99.90
27647;DHT22;42229;51.230;6.240;2023-04-16T02:42:38;10.50;99.90
27647;DHT22;42229;51.230;6.240;2023-04-16T02:45:05;10.50;99.90
27647;DHT22;42229;51.230;6.240;2023-04-16T02:47:31;10.50;99.90
27647;DHT22;42229;51.230;6.240;2023-04-16T02:49:58;10.50;99.90
27647;DHT22;42229;51.230;6.240;2023-04-16T02:52:24;10.50;99.90
27647;DHT22;42229;51.230;6.240;2023-04-16T02:54:50;10.50;99.90
27647;DHT22;42229;51.230;6.240;2023-04-16T02:57:16;10.50;99.90
27647;DHT22;42229;51.230;6.240;2023-04-16T02:59:43;10.50;99.90
27647;DHT22;42229;51.230;6.240;2023-04-16T03:02:09;10.60;99.90
27647;DHT22;42229;51.230;6.240;2023-04-16T03:04:35;10.50;99.90
27647;DHT22;42229;51.230;6.240;2023-04-16T03:07:01;10.50;99.90
27647;DHT22;42229;51.230;6.240;2023-04-16T03:09:28;10.50;99.90
27647;DHT22;42229;51.230;6.240;2023-04-16T03:11:54;10.50;99.90
27647;DHT22;42229;51.230;6.240;2023-04-16T03:14:21;10.50;99.90
27647;DHT22;42229;51.230;6.240;2023-04-16T03:16:47;10.50;99.90
27647;DHT22;42229;51.230;6.240;2023-04-16T03:19:13;10.50;99.90
27647;DHT22;42229;51.230;6.240;2023-04-16T03:21:40;10.50;99.90
27647;DHT22;42229;51.230;6.240;2023-04-16T03:24:06;10.50;99.90
27647;DHT22;42229;51.230;6.240;2023-04-16T03:26:32;10.50;99.90
27647;DHT22;42229;51.230;6.240;2023-04-16T03:28:59;10.60;99.90
27647;DHT22;42229;51.230;6.240;2023-04-16T03:31:28;10.50;99.90
27647;DHT22;42229;51.230;6.240;2023-04-16T03:33:55;10.50;99.90
27647;DHT22;42229;51.230;6.240;2023-04-16T03:36:21;10.50;99.90
27647;DHT22;42229;51.230;6.240;2023-04-16T03:38:48;10.50;99.90
27647;DHT22;42229;51.230;6.240;2023-04-16T03:41:15;10.50;99.90
27647;DHT22;42229;51.230;6.240;2023-04-16T03:43:41;10.60;99.90
27647;DHT22;42229;51.230;6.240;2023-04-16T03:46:10;10.60;99.90
27647;DHT22;42229;51.230;6.240;2023-04-16T03:48:36;10.60;99.90
27647;DHT22;42229;51.230;6.240;2023-04-16T03:51:03;10.60;99.90
27647;DHT22;42229;51.230;6.240;2023-04-16T03:53:29;10.60;99.90
27647;DHT22;42229;51.230;6.240;2023-04-16T03:55:55;10.60;99.90
27647;DHT22;42229;51.230;6.240;2023-04-16T03:58:22;10.60;99.90
27647;DHT22;42229;51.230;6.240;2023-04-16T04:00:48;10.60;99.90
27647;DHT22;42229;51.230;6.240;2023-04-16T04:03:15;10.60;99.90
27647;DHT22;42229;51.230;6.240;2023-04-16T04:05:44;10.50;99.90
27647;DHT22;42229;51.230;6.240;2023-04-16T04:08:13;10.50;99.90
27647;DHT22;42229;51.230;6.240;2023-04-16T04:10:40;10.50;99.90
27647;DHT22;42229;51.230;6.240;2023-04-16T04:13:09;10.50;99.90
27647;DHT22;42229;51.230;6.240;2023-04-16T04:15:35;10.50;99.90
27647;DHT22;42229;51.230;6.240;2023-04-16T04:18:02;10.50;99.90
27647;DHT22;42229;51.230;6.240;2023-04-16T04:20:28;10.50;99.90
27647;DHT22;42229;51.230;6.240;2023-04-16T04:22:54;10.50;99.90
27647;DHT22;42229;51.230;6.240;2023-04-16T04:25:24;10.50;99.90
27647;DHT22;42229;51.230;6.240;2023-04-16T04:27:50;10.50;99.90
27647;DHT22;42229;51.230;6.240;2023-04-16T04:30:16;10.50;99.90
27647;DHT22;42229;51.230;6.240;2023-04-16T04:32:43;10.50;99.90
27647;DHT22;42229;51.230;6.240;2023-04-16T04:35:10;10.50;99.90
27647;DHT22;42229;51.230;6.240;2023-04-16T04:37:36;10.50;99.90
27647;DHT22;42229;51.230;6.240;2023-04-16T04:40:11;10.50;99.90
27647;DHT22;42229;51.230;6.240;2023-04-16T04:42:37;10.50;99.90
27647;DHT22;42229;51.230;6.240;2023-04-16T04:45:04;10.50;99.90
27647;DHT22;42229;51.230;6.240;2023-04-16T04:47:32;10.50;99.90
27647;DHT22;42229;51.230;6.240;2023-04-16T04:49:59;10.50;99.90
27647;DHT22;42229;51.230;6.240;2023-04-16T04:52:26;10.50;99.90
27647;DHT22;42229;51.230;6.240;2023-04-16T04:54:52;10.60;99.90
27647;DHT22;42229;51.230;6.240;2023-04-16T04:57:19;10.60;99.90
27647;DHT22;42229;51.230;6.240;2023-04-16T04:59:45;10.60;99.90
27647;DHT22;42229;51.230;6.240;2023-04-16T05:02:13;10.60;99.90
27647;DHT22;42229;51.230;6.240;2023-04-16T05:04:39;10.60;99.90
27647;DHT22;42229;51.230;6.240;2023-04-16T05:07:05;10.60;99.90
27647;DHT22;42229;51.230;6.240;2023-04-16T05:09:32;10.60;99.90
27647;DHT22;42229;51.230;6.240;2023-04-16T05:11:58;10.60;99.90
27647;DHT22;42229;51.230;6.240;2023-04-16T05:14:24;10.70;99.90
27647;DHT22;42229;51.230;6.240;2023-04-16T05:16:50;10.70;99.90
27647;DHT22;42229;51.230;6.240;2023-04-16T05:19:17;10.70;99.90
27647;DHT22;42229;51.230;6.240;2023-04-16T05:21:43;10.70;99.90
27647;DHT22;42229;51.230;6.240;2023-04-16T05:24:09;10.70;99.90
27647;DHT22;42229;51.230;6.240;2023-04-16T05:26:35;10.70;99.90
27647;DHT22;42229;51.230;6.240;2023-04-16T05:29:01;10.70;99.90
27647;DHT22;42229;51.230;6.240;2023-04-16T05:31:28;10.70;99.90
27647;DHT22;42229;51.230;6.240;2023-04-16T05:33:54;10.70;99.90
27647;DHT22;42229;51.230;6.240;2023-04-16T05:36:20;10.80;99.90
27647;DHT22;42229;51.230;6.240;2023-04-16T05:38:47;10.80;99.90
27647;DHT22;42229;51.230;6.240;2023-04-16T05:41:13;10.70;99.90
27647;DHT22;42229;51.230;6.240;2023-04-16T05:43:39;10.80;99.90
27647;DHT22;42229;51.230;6.240;2023-04-16T05:46:06;10.80;99.90
27647;DHT22;42229;51.230;6.240;2023-04-16T05:48:32;10.80;99.90
27647;DHT22;42229;51.230;6.240;2023-04-16T05:50:58;10.80;99.90
27647;DHT22;42229;51.230;6.240;2023-04-16T05:53:24;10.80;99.90
27647;DHT22;42229;51.230;6.240;2023-04-16T05:55:51;10.80;99.90
27647;DHT22;42229;51.230;6.240;2023-04-16T05:58:17;10.80;99.90
27647;DHT22;42229;51.230;6.240;2023-04-16T06:00:43;10.80;99.90
27647;DHT22;42229;51.230;6.240;2023-04-16T06:03:10;10.90;99.90
27647;DHT22;42229;51.230;6.240;2023-04-16T06:05:36;10.90;99.90
27647;DHT22;42229;51.230;6.240;2023-04-16T06:08:02;10.90;99.90
27647;DHT22;42229;51.230;6.240;2023-04-16T06:10:28;10.90;99.90
27647;DHT22;42229;51.230;6.240;2023-04-16T06:12:55;10.90;99.90
27647;DHT22;42229;51.230;6.240;2023-04-16T06:15:21;10.90;99.90
27647;DHT22;42229;51.230;6.240;2023-04-16T06:17:48;10.90;99.90
27647;DHT22;42229;51.230;6.240;2023-04-16T06:20:14;10.90;99.90
27647;DHT22;42229;51.230;6.240;2023-04-16T06:22:40;10.90;99.90
27647;DHT22;42229;51.230;6.240;2023-04-16T06:25:07;10.90;99.90
27647;DHT22;42229;51.230;6.240;2023-04-16T06:27:33;10.90;99.90
27647;DHT22;42229;51.230;6.240;2023-04-16T06:30:00;10.90;99.90
27647;DHT22;42229;51.230;6.240;2023-04-16T06:32:26;11.00;99.90
27647;DHT22;42229;51.230;6.240;2023-04-16T06:34:52;10.90;99.90
27647;DHT22;42229;51.230;6.240;2023-04-16T06:37:18;10.90;99.90
27647;DHT22;42229;51.230;6.240;2023-04-16T06:39:45;11.00;99.90
27647;DHT22;42229;51.230;6.240;2023-04-16T06:42:11;11.00;99.90
27647;DHT22;42229;51.230;6.240;2023-04-16T06:44:37;11.00;99.90
27647;DHT22;42229;51.230;6.240;2023-04-16T06:47:04;11.00;99.90
27647;DHT22;42229;51.230;6.240;2023-04-16T06:49:30;11.00;99.90
27647;DHT22;42229;51.230;6.240;2023-04-16T06:51:56;11.00;99.90
27647;DHT22;42229;51.230;6.240;2023-04-16T06:54:23;11.10;99.90
27647;DHT22;42229;51.230;6.240;2023-04-16T06:56:49;11.10;99.90
27647;DHT22;42229;51.230;6.240;2023-04-16T06:59:15;11.10;99.90
27647;DHT22;42229;51.230;6.240;2023-04-16T07:01:41;11.10;99.90
27647;DHT22;42229;51.230;6.240;2023-04-16T07:04:08;11.20;99.90
27647;DHT22;42229;51.230;6.240;2023-04-16T07:06:34;11.20;99.90
27647;DHT22;42229;51.230;6.240;2023-04-16T07:09:00;11.20;99.90
27647;DHT22;42229;51.230;6.240;2023-04-16T07:11:26;11.20;99.90
27647;DHT22;42229;51.230;6.240;2023-04-16T07:13:53;11.20;99.90
27647;DHT22;42229;51.230;6.240;2023-04-16T07:16:19;11.30;99.90
27647;DHT22;42229;51.230;6.240;2023-04-16T07:18:45;11.30;99.90
27647;DHT22;42229;51.230;6.240;2023-04-16T07:21:12;11.30;99.90
27647;DHT22;42229;51.230;6.240;2023-04-16T07:23:38;11.30;99.90
27647;DHT22;42229;51.230;6.240;2023-04-16T07:26:04;11.40;99.90
27647;DHT22;42229;51.230;6.240;2023-04-16T07:28:30;11.40;99.90
27647;DHT22;42229;51.230;6.240;2023-04-16T07:30:57;11.40;99.90
27647;DHT22;42229;51.230;6.240;2023-04-16T07:33:23;11.40;99.90
27647;DHT22;42229;51.230;6.240;2023-04-16T07:35:51;11.50;99.90
27647;DHT22;42229;51.230;6.240;2023-04-16T07:38:17;11.40;99.90
27647;DHT22;42229;51.230;6.240;2023-04-16T07:40:43;11.40;99.90
27647;DHT22;42229;51.230;6.240;2023-04-16T07:43:10;11.50;99.90
27647;DHT22;42229;51.230;6.240;2023-04-16T07:45:36;11.50;99.90
27647;DHT22;42229;51.230;6.240;2023-04-16T07:48:02;11.50;99.90
27647;DHT22;42229;51.230;6.240;2023-04-16T07:50:28;11.50;99.90
27647;DHT22;42229;51.230;6.240;2023-04-16T07:52:55;11.60;99.90
27647;DHT22;42229;51.230;6.240;2023-04-16T07:55:21;11.50;99.90
27647;DHT22;42229;51.230;6.240;2023-04-16T07:57:47;11.60;99.90
27647;DHT22;42229;51.230;6.240;2023-04-16T08:00:13;11.60;99.90
27647;DHT22;42229;51.230;6.240;2023-04-16T08:02:40;11.50;99.90
27647;DHT22;42229;51.230;6.240;2023-04-16T08:05:06;11.60;99.90
27647;DHT22;42229;51.230;6.240;2023-04-16T08:07:33;11.60;99.90
27647;DHT22;42229;51.230;6.240;2023-04-16T08:09:59;11.50;99.90
27647;DHT22;42229;51.230;6.240;2023-04-16T08:12:25;11.50;99.90
27647;DHT22;42229;51.230;6.240;2023-04-16T08:14:51;11.60;99.90
27647;DHT22;42229;51.230;6.240;2023-04-16T08:17:18;11.60;99.90
27647;DHT22;42229;51.230;6.240;2023-04-16T08:19:44;11.60;99.90
27647;DHT22;42229;51.230;6.240;2023-04-16T08:22:10;11.60;99.90
27647;DHT22;42229;51.230;6.240;2023-04-16T08:24:37;11.60;99.90
27647;DHT22;42229;51.230;6.240;2023-04-16T08:27:03;11.60;99.90
27647;DHT22;42229;51.230;6.240;2023-04-16T08:29:30;11.60;99.90
27647;DHT22;42229;51.230;6.240;2023-04-16T08:31:57;11.60;99.90
27647;DHT22;42229;51.230;6.240;2023-04-16T08:34:24;11.60;99.90
27647;DHT22;42229;51.230;6.240;2023-04-16T08:36:50;11.70;99.90
27647;DHT22;42229;51.230;6.240;2023-04-16T08:39:17;11.70;99.90
27647;DHT22;42229;51.230;6.240;2023-04-16T08:41:44;11.80;99.90
27647;DHT22;42229;51.230;6.240;2023-04-16T08:44:30;11.90;99.90
27647;DHT22;42229;51.230;6.240;2023-04-16T08:46:58;12.00;99.90
27647;DHT22;42229;51.230;6.240;2023-04-16T08:49:25;12.10;99.90
27647;DHT22;42229;51.230;6.240;2023-04-16T08:51:53;12.20;99.90
27647;DHT22;42229;51.230;6.240;2023-04-16T08:56:52;12.40;99.90
27647;DHT22;42229;51.230;6.240;2023-04-16T08:59:18;12.40;99.90
27647;DHT22;42229;51.230;6.240;2023-04-16T09:01:45;12.50;99.90
27647;DHT22;42229;51.230;6.240;2023-04-16T09:04:13;12.60;99.90
27647;DHT22;42229;51.230;6.240;2023-04-16T09:06:41;12.60;99.90
27647;DHT22;42229;51.230;6.240;2023-04-16T09:09:07;12.70;99.90
27647;DHT22;42229;51.230;6.240;2023-04-16T09:11:33;12.70;99.90
27647;DHT22;42229;51.230;6.240;2023-04-16T09:14:00;12.70;99.90
27647;DHT22;42229;51.230;6.240;2023-04-16T09:16:26;12.70;99.90
27647;DHT22;42229;51.230;6.240;2023-04-16T09:18:56;12.70;99.90
27647;DHT22;42229;51.230;6.240;2023-04-16T09:21:22;12.70;99.90
27647;DHT22;42229;51.230;6.240;2023-04-16T09:23:48;12.70;99.90
27647;DHT22;42229;51.230;6.240;2023-04-16T09:26:15;12.70;99.90
27647;DHT22;42229;51.230;6.240;2023-04-16T09:28:45;12.70;99.90
27647;DHT22;42229;51.230;6.240;2023-04-16T09:31:13;12.70;99.90
27647;DHT22;42229;51.230;6.240;2023-04-16T09:33:40;12.70;99.90
27647;DHT22;42229;51.230;6.240;2023-04-16T09:36:07;12.60;99.90
27647;DHT22;42229;51.230;6.240;2023-04-16T09:41:13;12.70;99.90
27647;DHT22;42229;51.230;6.240;2023-04-16T09:43:48;12.80;99.90
27647;DHT22;42229;51.230;6.240;2023-04-16T09:46:24;12.90;99.90
27647;DHT22;42229;51.230;6.240;2023-04-16T09:48:55;13.00;99.90
27647;DHT22;42229;51.230;6.240;2023-04-16T09:51:21;13.10;99.90
27647;DHT22;42229;51.230;6.240;2023-04-16T09:53:50;13.20;99.90
27647;DHT22;42229;51.230;6.240;2023-04-16T09:56:18;13.40;99.90
27647;DHT22;42229;51.230;6.240;2023-04-16T09:58:48;13.40;99.90
27647;DHT22;42229;51.230;6.240;2023-04-16T10:01:16;13.50;99.90
27647;DHT22;42229;51.230;6.240;2023-04-16T10:03:42;13.60;99.90
27647;DHT22;42229;51.230;6.240;2023-04-16T10:06:16;13.60;99.90
27647;DHT22;42229;51.230;6.240;2023-04-16T10:08:47;13.70;99.90
27647;DHT22;42229;51.230;6.240;2023-04-16T10:11:15;13.80;99.90
27647;DHT22;42229;51.230;6.240;2023-04-16T10:13:41;13.80;99.90
27647;DHT22;42229;51.230;6.240;2023-04-16T10:16:08;13.90;99.90
27647;DHT22;42229;51.230;6.240;2023-04-16T10:18:35;14.10;99.90
27647;DHT22;42229;51.230;6.240;2023-04-16T10:21:05;14.20;99.90
27647;DHT22;42229;51.230;6.240;2023-04-16T10:23:32;14.40;99.90
27647;DHT22;42229;51.230;6.240;2023-04-16T10:25:59;14.50;99.90
27647;DHT22;42229;51.230;6.240;2023-04-16T10:28:26;14.70;99.90
27647;DHT22;42229;51.230;6.240;2023-04-16T10:30:55;14.90;99.90
27647;DHT22;42229;51.230;6.240;2023-04-16T10:33:23;15.00;99.90
27647;DHT22;42229;51.230;6.240;2023-04-16T10:35:51;15.00;99.90
27647;DHT22;42229;51.230;6.240;2023-04-16T10:38:19;15.10;99.90
27647;DHT22;42229;51.230;6.240;2023-04-16T10:40:47;15.20;99.90
27647;DHT22;42229;51.230;6.240;2023-04-16T10:43:17;15.30;99.90
27647;DHT22;42229;51.230;6.240;2023-04-16T10:45:45;15.40;99.90
27647;DHT22;42229;51.230;6.240;2023-04-16T10:48:12;15.50;99.90
27647;DHT22;42229;51.230;6.240;2023-04-16T10:50:41;15.60;99.90
27647;DHT22;42229;51.230;6.240;2023-04-16T10:53:24;15.70;99.90
27647;DHT22;42229;51.230;6.240;2023-04-16T10:58:29;15.90;99.90
27647;DHT22;42229;51.230;6.240;2023-04-16T11:00:59;16.00;99.90
27647;DHT22;42229;51.230;6.240;2023-04-16T11:03:29;16.00;99.90
27647;DHT22;42229;51.230;6.240;2023-04-16T11:06:15;16.00;99.90
27647;DHT22;42229;51.230;6.240;2023-04-16T11:08:44;16.10;99.90
27647;DHT22;42229;51.230;6.240;2023-04-16T11:11:11;16.20;99.90
27647;DHT22;42229;51.230;6.240;2023-04-16T11:13:38;16.40;99.90
27647;DHT22;42229;51.230;6.240;2023-04-16T11:16:08;16.50;99.90
27647;DHT22;42229;51.230;6.240;2023-04-16T11:18:35;16.50;99.90
27647;DHT22;42229;51.230;6.240;2023-04-16T11:21:01;16.50;99.90
27647;DHT22;42229;51.230;6.240;2023-04-16T11:23:27;16.40;99.90
27647;DHT22;42229;51.230;6.240;2023-04-16T11:25:54;16.40;99.90
27647;DHT22;42229;51.230;6.240;2023-04-16T11:28:33;16.40;99.90
27647;DHT22;42229;51.230;6.240;2023-04-16T11:31:07;16.40;99.90
27647;DHT22;42229;51.230;6.240;2023-04-16T11:33:36;16.50;99.90
27647;DHT22;42229;51.230;6.240;2023-04-16T11:36:02;16.60;99.90
27647;DHT22;42229;51.230;6.240;2023-04-16T11:38:34;16.70;99.90
27647;DHT22;42229;51.230;6.240;2023-04-16T11:41:01;16.80;99.90
27647;DHT22;42229;51.230;6.240;2023-04-16T11:43:28;16.80;99.90
27647;DHT22;42229;51.230;6.240;2023-04-16T11:46:04;16.80;99.90
27647;DHT22;42229;51.230;6.240;2023-04-16T11:48:50;16.80;99.90
27647;DHT22;42229;51.230;6.240;2023-04-16T11:51:18;16.80;99.90
27647;DHT22;42229;51.230;6.240;2023-04-16T11:53:54;16.80;99.90
27647;DHT22;42229;51.230;6.240;2023-04-16T11:56:24;16.80;99.90
27647;DHT22;42229;51.230;6.240;2023-04-16T12:01:39;17.20;99.90
27647;DHT22;42229;51.230;6.240;2023-04-16T12:04:06;17.50;99.90
27647;DHT22;42229;51.230;6.240;2023-04-16T12:06:33;17.90;99.90
27647;DHT22;42229;51.230;6.240;2023-04-16T12:08:59;18.30;99.90
27647;DHT22;42229;51.230;6.240;2023-04-16T12:11:41;18.70;99.90
27647;DHT22;42229;51.230;6.240;2023-04-16T12:14:08;19.00;99.90
27647;DHT22;42229;51.230;6.240;2023-04-16T12:16:36;19.30;99.90
27647;DHT22;42229;51.230;6.240;2023-04-16T12:19:02;19.50;99.90
27647;DHT22;42229;51.230;6.240;2023-04-16T12:21:42;19.60;99.90
27647;DHT22;42229;51.230;6.240;2023-04-16T12:24:11;19.70;99.90
27647;DHT22;42229;51.230;6.240;2023-04-16T12:26:39;19.70;99.90
27647;DHT22;42229;51.230;6.240;2023-04-16T12:29:17;19.70;99.90
27647;DHT22;42229;51.230;6.240;2023-04-16T12:31:50;19.50;99.90
27647;DHT22;42229;51.230;6.240;2023-04-16T12:34:17;19.40;99.90
27647;DHT22;42229;51.230;6.240;2023-04-16T12:36:44;19.20;99.90
27647;DHT22;42229;51.230;6.240;2023-04-16T12:39:11;19.00;99.90
27647;DHT22;42229;51.230;6.240;2023-04-16T12:41:39;18.80;99.90
27647;DHT22;42229;51.230;6.240;2023-04-16T12:44:07;18.70;99.90
27647;DHT22;42229;51.230;6.240;2023-04-16T12:46:34;18.60;99.90
27647;DHT22;42229;51.230;6.240;2023-04-16T12:49:02;18.40;99.90
27647;DHT22;42229;51.230;6.240;2023-04-16T12:51:28;18.40;99.90
27647;DHT22;42229;51.230;6.240;2023-04-16T12:53:54;18.40;99.90
27647;DHT22;42229;51.230;6.240;2023-04-16T12:56:20;18.40;99.90
27647;DHT22;42229;51.230;6.240;2023-04-16T12:58:47;18.50;99.90
27647;DHT22;42229;51.230;6.240;2023-04-16T13:01:17;18.50;99.90
27647;DHT22;42229;51.230;6.240;2023-04-16T13:03:46;18.60;99.90
27647;DHT22;42229;51.230;6.240;2023-04-16T13:06:13;18.60;99.90
27647;DHT22;42229;51.230;6.240;2023-04-16T13:08:40;18.70;99.90
27647;DHT22;42229;51.230;6.240;2023-04-16T13:11:06;18.70;99.90
27647;DHT22;42229;51.230;6.240;2023-04-16T13:13:33;18.60;99.90
27647;DHT22;42229;51.230;6.240;2023-04-16T13:15:59;18.60;99.90
27647;DHT22;42229;51.230;6.240;2023-04-16T13:18:25;18.50;99.90
27647;DHT22;42229;51.230;6.240;2023-04-16T13:20:52;18.40;99.90
27647;DHT22;42229;51.230;6.240;2023-04-16T13:23:19;18.30;99.90
27647;DHT22;42229;51.230;6.240;2023-04-16T13:25:45;18.20;99.90
27647;DHT22;42229;51.230;6.240;2023-04-16T13:28:11;18.10;99.90
27647;DHT22;42229;51.230;6.240;2023-04-16T13:30:37;18.00;99.90
27647;DHT22;42229;51.230;6.240;2023-04-16T13:33:04;17.90;99.90
27647;DHT22;42229;51.230;6.240;2023-04-16T13:35:30;17.80;99.90
27647;DHT22;42229;51.230;6.240;2023-04-16T13:37:56;17.80;99.90
27647;DHT22;42229;51.230;6.240;2023-04-16T13:40:22;17.70;99.90
27647;DHT22;42229;51.230;6.240;2023-04-16T13:42:49;17.60;99.90
27647;DHT22;42229;51.230;6.240;2023-04-16T13:45:15;17.60;99.90
27647;DHT22;42229;51.230;6.240;2023-04-16T13:47:41;17.60;99.90
27647;DHT22;42229;51.230;6.240;2023-04-16T13:50:08;17.60;99.90
27647;DHT22;42229;51.230;6.240;2023-04-16T13:52:35;17.50;99.90
27647;DHT22;42229;51.230;6.240;2023-04-16T13:55:01;17.70;99.90
27647;DHT22;42229;51.230;6.240;2023-04-16T13:57:28;17.90;99.90
27647;DHT22;42229;51.230;6.240;2023-04-16T13:59:54;18.20;99.90
27647;DHT22;42229;51.230;6.240;2023-04-16T14:02:21;18.50;99.90
27647;DHT22;42229;51.230;6.240;2023-04-16T14:04:47;18.70;99.90
27647;DHT22;42229;51.230;6.240;2023-04-16T14:07:13;18.80;99.90
27647;DHT22;42229;51.230;6.240;2023-04-16T14:09:40;18.90;99.90
27647;DHT22;42229;51.230;6.240;2023-04-16T14:12:06;19.10;99.90
27647;DHT22;42229;51.230;6.240;2023-04-16T14:14:32;19.10;99.90
27647;DHT22;42229;51.230;6.240;2023-04-16T14:16:59;19.10;99.90
27647;DHT22;42229;51.230;6.240;2023-04-16T14:19:25;19.20;99.90
27647;DHT22;42229;51.230;6.240;2023-04-16T14:21:52;19.20;99.90
27647;DHT22;42229;51.230;6.240;2023-04-16T14:24:19;19.10;99.90
27647;DHT22;42229;51.230;6.240;2023-04-16T14:26:45;19.00;99.90
27647;DHT22;42229;51.230;6.240;2023-04-16T14:29:11;19.00;99.90
27647;DHT22;42229;51.230;6.240;2023-04-16T14:31:37;19.10;99.90
27647;DHT22;42229;51.230;6.240;2023-04-16T14:34:04;19.20;99.90
27647;DHT22;42229;51.230;6.240;2023-04-16T14:36:30;19.40;99.90
27647;DHT22;42229;51.230;6.240;2023-04-16T14:38:56;19.60;99.90
27647;DHT22;42229;51.230;6.240;2023-04-16T14:41:22;19.70;99.90
27647;DHT22;42229;51.230;6.240;2023-04-16T14:43:48;19.70;99.90
27647;DHT22;42229;51.230;6.240;2023-04-16T14:46:15;19.80;99.90
27647;DHT22;42229;51.230;6.240;2023-04-16T14:48:42;19.90;99.90
27647;DHT22;42229;51.230;6.240;2023-04-16T14:51:09;19.90;99.90
27647;DHT22;42229;51.230;6.240;2023-04-16T14:53:38;19.90;99.90
27647;DHT22;42229;51.230;6.240;2023-04-16T14:56:04;19.80;99.90
27647;DHT22;42229;51.230;6.240;2023-04-16T14:58:30;19.70;99.90
27647;DHT22;42229;51.230;6.240;2023-04-16T15:00:57;19.50;99.90
27647;DHT22;42229;51.230;6.240;2023-04-16T15:03:23;19.40;99.90
27647;DHT22;42229;51.230;6.240;2023-04-16T15:05:50;19.20;99.90
27647;DHT22;42229;51.230;6.240;2023-04-16T15:08:20;19.00;99.90
27647;DHT22;42229;51.230;6.240;2023-04-16T15:10:47;18.80;99.90
27647;DHT22;42229;51.230;6.240;2023-04-16T15:13:13;18.60;99.90
27647;DHT22;42229;51.230;6.240;2023-04-16T15:15:39;18.30;99.90
27647;DHT22;42229;51.230;6.240;2023-04-16T15:18:06;18.10;99.90
27647;DHT22;42229;51.230;6.240;2023-04-16T15:20:32;17.90;99.90
27647;DHT22;42229;51.230;6.240;2023-04-16T15:22:58;17.70;99.90
27647;DHT22;42229;51.230;6.240;2023-04-16T15:25:24;17.60;99.90
27647;DHT22;42229;51.230;6.240;2023-04-16T15:27:51;17.40;99.90
27647;DHT22;42229;51.230;6.240;2023-04-16T15:30:17;17.30;99.90
27647;DHT22;42229;51.230;6.240;2023-04-16T15:32:43;17.20;99.90
27647;DHT22;42229;51.230;6.240;2023-04-16T15:35:10;17.10;99.90
27647;DHT22;42229;51.230;6.240;2023-04-16T15:37:37;17.00;99.90
27647;DHT22;42229;51.230;6.240;2023-04-16T15:40:04;16.90;99.90